sensor_id;sensor_type;location;lat;lon;timestamp;temperature;humidity
18454;DHT22;9356;52.202;20.950;2024-03-25T00:00:12;6.20;99.90
18454;DHT22;9356;52.202;20.950;2024-03-25T00:01:14;6.30;99.90
18454;DHT22;9356;52.202;20.950;2024-03-25T00:02:16;6.30;99.90
18454;DHT22;9356;52.202;20.950;2024-03-25T00:03:20;6.30;99.90
18454;DHT22;9356;52.202;20.950;2024-03-25T00:04:28;6.20;99.90
18454;DHT22;9356;52.202;20.950;2024-03-25T00:05:30;6.20;99.90
18454;DHT22;9356;52.202;20.950;2024-03-25T00:06:33;6.20;99.90
18454;DHT22;9356;52.202;20.950;2024-03-25T00:07:36;6.20;99.90
18454;DHT22;9356;52.202;20.950;2024-03-25T00:08:38;6.20;99.90
18454;DHT22;9356;52.202;20.950;2024-03-25T00:09:39;6.20;99.90
18454;DHT22;9356;52.202;20.950;2024-03-25T00:10:41;6.10;99.90
18454;DHT22;9356;52.202;20.950;2024-03-25T00:11:46;6.10;99.90
18454;DHT22;9356;52.202;20.950;2024-03-25T00:12:49;6.10;99.90
18454;DHT22;9356;52.202;20.950;2024-03-25T00:13:54;6.00;99.90
18454;DHT22;9356;52.202;20.950;2024-03-25T00:14:59;6.00;99.90
18454;DHT22;9356;52.202;20.950;2024-03-25T00:16:05;6.00;99.90
18454;DHT22;9356;52.202;20.950;2024-03-25T00:17:08;6.00;99.90
18454;DHT22;9356;52.202;20.950;2024-03-25T00:18:12;6.00;99.90
18454;DHT22;9356;52.202;20.950;2024-03-25T00:19:15;5.90;99.90
18454;DHT22;9356;52.202;20.950;2024-03-25T00:20:17;6.00;99.90
18454;DHT22;9356;52.202;20.950;2024-03-25T00:21:19;6.00;99.90
18454;DHT22;9356;52.202;20.950;2024-03-25T00:22:27;6.00;99.90
18454;DHT22;9356;52.202;20.950;2024-03-25T00:23:28;5.90;99.90
18454;DHT22;9356;52.202;20.950;2024-03-25T00:24:30;5.80;99.90
18454;DHT22;9356;52.202;20.950;2024-03-25T00:25:33;5.90;99.90
18454;DHT22;9356;52.202;20.950;2024-03-25T00:26:35;8.50;99.90
18454;DHT22;9356;52.202;20.950;2024-03-25T00:27:38;5.70;99.90
18454;DHT22;9356;52.202;20.950;2024-03-25T00:28:39;5.70;99.90
18454;DHT22;9356;52.202;20.950;2024-03-25T00:29:44;5.70;99.90
18454;DHT22;9356;52.202;20.950;2024-03-25T00:30:52;5.70;99.90
18454;DHT22;9356;52.202;20.950;2024-03-25T00:31:55;5.80;99.90
18454;DHT22;9356;52.202;20.950;2024-03-25T00:32:57;5.80;99.90
18454;DHT22;9356;52.202;20.950;2024-03-25T00:33:59;5.90;99.90
18454;DHT22;9356;52.202;20.950;2024-03-25T00:35:00;5.70;99.90
18454;DHT22;9356;52.202;20.950;2024-03-25T00:36:04;5.70;99.90
18454;DHT22;9356;52.202;20.950;2024-03-25T00:37:08;5.70;99.90
18454;DHT22;9356;52.202;20.950;2024-03-25T00:38:10;3.40;99.90
18454;DHT22;9356;52.202;20.950;2024-03-25T00:39:12;5.60;99.90
18454;DHT22;9356;52.202;20.950;2024-03-25T00:40:15;5.60;99.90
18454;DHT22;9356;52.202;20.950;2024-03-25T00:41:20;5.70;99.90
18454;DHT22;9356;52.202;20.950;2024-03-25T00:42:25;5.70;99.90
18454;DHT22;9356;52.202;20.950;2024-03-25T00:43:27;7.20;99.90
18454;DHT22;9356;52.202;20.950;2024-03-25T00:44:31;5.70;99.90
18454;DHT22;9356;52.202;20.950;2024-03-25T00:45:33;5.70;99.90
18454;DHT22;9356;52.202;20.950;2024-03-25T00:46:36;5.70;99.90
18454;DHT22;9356;52.202;20.950;2024-03-25T00:47:39;5.60;99.90
18454;DHT22;9356;52.202;20.950;2024-03-25T00:48:45;5.60;99.90
18454;DHT22;9356;52.202;20.950;2024-03-25T00:49:47;5.60;99.90
18454;DHT22;9356;52.202;20.950;2024-03-25T00:50:48;5.60;99.90
18454;DHT22;9356;52.202;20.950;2024-03-25T00:51:50;5.60;99.90
18454;DHT22;9356;52.202;20.950;2024-03-25T00:52:56;5.60;99.90
18454;DHT22;9356;52.202;20.950;2024-03-25T00:54:01;5.60;99.90
18454;DHT22;9356;52.202;20.950;2024-03-25T00:55:03;7.40;99.90
18454;DHT22;9356;52.202;20.950;2024-03-25T00:56:07;5.50;99.90
18454;DHT22;9356;52.202;20.950;2024-03-25T00:57:08;5.50;99.90
18454;DHT22;9356;52.202;20.950;2024-03-25T00:58:13;5.70;99.90
18454;DHT22;9356;52.202;20.950;2024-03-25T00:59:17;5.50;99.90
18454;DHT22;9356;52.202;20.950;2024-03-25T01:00:20;5.50;99.90
18454;DHT22;9356;52.202;20.950;2024-03-25T01:01:22;5.50;99.90
18454;DHT22;9356;52.202;20.950;2024-03-25T01:02:25;5.50;99.90
18454;DHT22;9356;52.202;20.950;2024-03-25T01:03:29;5.50;99.90
18454;DHT22;9356;52.202;20.950;2024-03-25T01:04:32;5.50;99.90
18454;DHT22;9356;52.202;20.950;2024-03-25T01:05:34;6.30;99.90
18454;DHT22;9356;52.202;20.950;2024-03-25T01:06:36;5.50;99.90
18454;DHT22;9356;52.202;20.950;2024-03-25T01:07:38;5.50;99.90
18454;DHT22;9356;52.202;20.950;2024-03-25T01:08:42;5.50;99.90
18454;DHT22;9356;52.202;20.950;2024-03-25T01:09:43;5.60;99.90
18454;DHT22;9356;52.202;20.950;2024-03-25T01:10:45;5.50;99.90
18454;DHT22;9356;52.202;20.950;2024-03-25T01:11:47;5.50;99.90
18454;DHT22;9356;52.202;20.950;2024-03-25T01:12:50;5.50;99.90
18454;DHT22;9356;52.202;20.950;2024-03-25T01:13:52;5.40;99.90
18454;DHT22;9356;52.202;20.950;2024-03-25T01:14:57;5.30;99.90
18454;DHT22;9356;52.202;20.950;2024-03-25T01:15:59;5.30;99.90
18454;DHT22;9356;52.202;20.950;2024-03-25T01:17:02;5.30;99.90
18454;DHT22;9356;52.202;20.950;2024-03-25T01:18:05;5.30;99.90
18454;DHT22;9356;52.202;20.950;2024-03-25T01:19:07;3.70;99.90
18454;DHT22;9356;52.202;20.950;2024-03-25T01:20:11;5.30;99.90
18454;DHT22;9356;52.202;20.950;2024-03-25T01:21:12;5.30;99.90
18454;DHT22;9356;52.202;20.950;2024-03-25T01:22:15;5.30;99.90
18454;DHT22;9356;52.202;20.950;2024-03-25T01:23:17;5.20;99.90
18454;DHT22;9356;52.202;20.950;2024-03-25T01:24:19;5.20;99.90
18454;DHT22;9356;52.202;20.950;2024-03-25T01:25:22;5.20;99.90
18454;DHT22;9356;52.202;20.950;2024-03-25T01:26:23;5.20;99.90
18454;DHT22;9356;52.202;20.950;2024-03-25T01:27:27;5.20;99.90
18454;DHT22;9356;52.202;20.950;2024-03-25T01:28:28;5.20;99.90
18454;DHT22;9356;52.202;20.950;2024-03-25T01:29:30;5.10;99.90
18454;DHT22;9356;52.202;20.950;2024-03-25T01:30:32;5.20;99.90
18454;DHT22;9356;52.202;20.950;2024-03-25T01:31:36;5.20;99.90
18454;DHT22;9356;52.202;20.950;2024-03-25T01:32:43;5.30;99.90
18454;DHT22;9356;52.202;20.950;2024-03-25T01:33:45;5.20;99.90
18454;DHT22;9356;52.202;20.950;2024-03-25T01:34:49;5.10;99.90
18454;DHT22;9356;52.202;20.950;2024-03-25T01:35:51;5.10;99.90
18454;DHT22;9356;52.202;20.950;2024-03-25T01:36:53;5.10;99.90
18454;DHT22;9356;52.202;20.950;2024-03-25T01:37:55;4.10;99.90
18454;DHT22;9356;52.202;20.950;2024-03-25T01:39:00;5.10;99.90
18454;DHT22;9356;52.202;20.950;2024-03-25T01:40:05;5.20;99.90
18454;DHT22;9356;52.202;20.950;2024-03-25T01:41:09;4.10;99.90
18454;DHT22;9356;52.202;20.950;2024-03-25T01:42:11;5.30;99.90
18454;DHT22;9356;52.202;20.950;2024-03-25T01:43:12;5.20;99.90
18454;DHT22;9356;52.202;20.950;2024-03-25T01:44:17;5.30;99.90
18454;DHT22;9356;52.202;20.950;2024-03-25T01:45:20;5.00;99.90
18454;DHT22;9356;52.202;20.950;2024-03-25T01:46:21;5.20;99.90
18454;DHT22;9356;52.202;20.950;2024-03-25T01:47:23;5.20;99.90
18454;DHT22;9356;52.202;20.950;2024-03-25T01:48:26;5.20;99.90
18454;DHT22;9356;52.202;20.950;2024-03-25T01:49:30;5.20;99.90
18454;DHT22;9356;52.202;20.950;2024-03-25T01:50:34;5.20;99.90
18454;DHT22;9356;52.202;20.950;2024-03-25T01:51:43;5.20;99.90
18454;DHT22;9356;52.202;20.950;2024-03-25T01:52:50;5.20;99.90
18454;DHT22;9356;52.202;20.950;2024-03-25T01:53:53;5.20;99.90
18454;DHT22;9356;52.202;20.950;2024-03-25T01:54:57;5.10;99.90
18454;DHT22;9356;52.202;20.950;2024-03-25T01:56:00;5.20;99.90
18454;DHT22;9356;52.202;20.950;2024-03-25T01:57:03;5.10;99.90
18454;DHT22;9356;52.202;20.950;2024-03-25T01:58:07;5.20;99.90
18454;DHT22;9356;52.202;20.950;2024-03-25T01:59:10;5.20;99.90
18454;DHT22;9356;52.202;20.950;2024-03-25T02:00:13;5.10;99.90
18454;DHT22;9356;52.202;20.950;2024-03-25T02:01:21;5.10;99.90
18454;DHT22;9356;52.202;20.950;2024-03-25T02:02:24;6.20;99.90
18454;DHT22;9356;52.202;20.950;2024-03-25T02:03:27;5.10;99.90
18454;DHT22;9356;52.202;20.950;2024-03-25T02:04:31;5.00;99.90
18454;DHT22;9356;52.202;20.950;2024-03-25T02:05:34;5.10;99.90
18454;DHT22;9356;52.202;20.950;2024-03-25T02:06:40;5.10;99.90
18454;DHT22;9356;52.202;20.950;2024-03-25T02:07:43;5.10;99.90
18454;DHT22;9356;52.202;20.950;2024-03-25T02:08:47;5.00;99.90
18454;DHT22;9356;52.202;20.950;2024-03-25T02:09:53;5.00;99.90
18454;DHT22;9356;52.202;20.950;2024-03-25T02:10:55;4.90;99.90
18454;DHT22;9356;52.202;20.950;2024-03-25T02:11:57;5.00;99.90
18454;DHT22;9356;52.202;20.950;2024-03-25T02:13:00;4.90;99.90
18454;DHT22;9356;52.202;20.950;2024-03-25T02:14:03;4.90;99.90
18454;DHT22;9356;52.202;20.950;2024-03-25T02:15:06;4.90;99.90
18454;DHT22;9356;52.202;20.950;2024-03-25T02:16:09;4.90;99.90
18454;DHT22;9356;52.202;20.950;2024-03-25T02:17:12;4.80;99.90
18454;DHT22;9356;52.202;20.950;2024-03-25T02:18:17;6.10;99.90
18454;DHT22;9356;52.202;20.950;2024-03-25T02:19:22;4.80;99.90
18454;DHT22;9356;52.202;20.950;2024-03-25T02:20:26;4.80;99.90
18454;DHT22;9356;52.202;20.950;2024-03-25T02:21:30;4.80;99.90
18454;DHT22;9356;52.202;20.950;2024-03-25T02:22:32;4.80;99.90
18454;DHT22;9356;52.202;20.950;2024-03-25T02:23:39;4.80;99.90
18454;DHT22;9356;52.202;20.950;2024-03-25T02:24:45;4.80;99.90
18454;DHT22;9356;52.202;20.950;2024-03-25T02:25:51;4.80;99.90
18454;DHT22;9356;52.202;20.950;2024-03-25T02:26:55;4.80;99.90
18454;DHT22;9356;52.202;20.950;2024-03-25T02:27:58;4.80;99.90
18454;DHT22;9356;52.202;20.950;2024-03-25T02:29:04;4.80;99.90
18454;DHT22;9356;52.202;20.950;2024-03-25T02:30:07;4.80;99.90
18454;DHT22;9356;52.202;20.950;2024-03-25T02:31:11;4.80;99.90
18454;DHT22;9356;52.202;20.950;2024-03-25T02:32:13;4.90;99.90
18454;DHT22;9356;52.202;20.950;2024-03-25T02:33:16;3.60;99.90
18454;DHT22;9356;52.202;20.950;2024-03-25T02:34:19;4.80;99.90
18454;DHT22;9356;52.202;20.950;2024-03-25T02:35:22;4.80;99.90
18454;DHT22;9356;52.202;20.950;2024-03-25T02:36:25;4.80;99.90
18454;DHT22;9356;52.202;20.950;2024-03-25T02:37:27;4.80;99.90
18454;DHT22;9356;52.202;20.950;2024-03-25T02:38:30;4.80;99.90
18454;DHT22;9356;52.202;20.950;2024-03-25T02:39:34;4.70;99.90
18454;DHT22;9356;52.202;20.950;2024-03-25T02:40:37;4.80;99.90
18454;DHT22;9356;52.202;20.950;2024-03-25T02:41:43;4.80;99.90
18454;DHT22;9356;52.202;20.950;2024-03-25T02:42:46;4.80;99.90
18454;DHT22;9356;52.202;20.950;2024-03-25T02:43:48;4.80;99.90
18454;DHT22;9356;52.202;20.950;2024-03-25T02:44:51;4.80;99.90
18454;DHT22;9356;52.202;20.950;2024-03-25T02:45:52;4.80;99.90
18454;DHT22;9356;52.202;20.950;2024-03-25T02:46:54;4.80;99.90
18454;DHT22;9356;52.202;20.950;2024-03-25T02:47:57;4.80;99.90
18454;DHT22;9356;52.202;20.950;2024-03-25T02:48:58;4.90;99.90
18454;DHT22;9356;52.202;20.950;2024-03-25T02:50:00;4.90;99.90
18454;DHT22;9356;52.202;20.950;2024-03-25T02:51:03;4.90;99.90
18454;DHT22;9356;52.202;20.950;2024-03-25T02:52:05;4.90;99.90
18454;DHT22;9356;52.202;20.950;2024-03-25T02:53:07;5.00;99.90
18454;DHT22;9356;52.202;20.950;2024-03-25T02:54:09;4.90;99.90
18454;DHT22;9356;52.202;20.950;2024-03-25T02:55:11;5.00;99.90
18454;DHT22;9356;52.202;20.950;2024-03-25T02:56:13;5.00;99.90
18454;DHT22;9356;52.202;20.950;2024-03-25T02:57:17;4.50;99.90
18454;DHT22;9356;52.202;20.950;2024-03-25T02:58:19;7.00;99.90
18454;DHT22;9356;52.202;20.950;2024-03-25T02:59:22;5.00;99.90
18454;DHT22;9356;52.202;20.950;2024-03-25T03:00:23;5.00;99.90
18454;DHT22;9356;52.202;20.950;2024-03-25T03:01:25;5.00;99.90
18454;DHT22;9356;52.202;20.950;2024-03-25T03:02:27;4.90;99.90
18454;DHT22;9356;52.202;20.950;2024-03-25T03:03:30;5.00;99.90
18454;DHT22;9356;52.202;20.950;2024-03-25T03:04:32;4.90;99.90
18454;DHT22;9356;52.202;20.950;2024-03-25T03:05:34;4.90;99.90
18454;DHT22;9356;52.202;20.950;2024-03-25T03:06:36;5.00;99.90
18454;DHT22;9356;52.202;20.950;2024-03-25T03:07:39;5.00;99.90
18454;DHT22;9356;52.202;20.950;2024-03-25T03:08:41;5.80;99.90
18454;DHT22;9356;52.202;20.950;2024-03-25T03:09:42;5.00;99.90
18454;DHT22;9356;52.202;20.950;2024-03-25T03:10:45;4.90;99.90
18454;DHT22;9356;52.202;20.950;2024-03-25T03:11:47;4.90;99.90
18454;DHT22;9356;52.202;20.950;2024-03-25T03:12:50;4.90;99.90
18454;DHT22;9356;52.202;20.950;2024-03-25T03:13:53;4.90;99.90
18454;DHT22;9356;52.202;20.950;2024-03-25T03:14:55;5.00;99.90
18454;DHT22;9356;52.202;20.950;2024-03-25T03:15:56;4.90;99.90
18454;DHT22;9356;52.202;20.950;2024-03-25T03:16:58;5.00;99.90
18454;DHT22;9356;52.202;20.950;2024-03-25T03:18:00;5.00;99.90
18454;DHT22;9356;52.202;20.950;2024-03-25T03:19:07;5.00;99.90
18454;DHT22;9356;52.202;20.950;2024-03-25T03:20:10;4.90;99.90
18454;DHT22;9356;52.202;20.950;2024-03-25T03:21:12;5.00;99.90
18454;DHT22;9356;52.202;20.950;2024-03-25T03:22:14;5.00;99.90
18454;DHT22;9356;52.202;20.950;2024-03-25T03:23:16;5.00;99.90
18454;DHT22;9356;52.202;20.950;2024-03-25T03:24:18;5.00;99.90
18454;DHT22;9356;52.202;20.950;2024-03-25T03:25:20;4.90;99.90
18454;DHT22;9356;52.202;20.950;2024-03-25T03:26:22;4.80;99.90
18454;DHT22;9356;52.202;20.950;2024-03-25T03:27:27;5.10;99.90
18454;DHT22;9356;52.202;20.950;2024-03-25T03:28:30;5.00;99.90
18454;DHT22;9356;52.202;20.950;2024-03-25T03:29:32;4.90;99.90
18454;DHT22;9356;52.202;20.950;2024-03-25T03:30:36;4.90;99.90
18454;DHT22;9356;52.202;20.950;2024-03-25T03:31:37;4.90;99.90
18454;DHT22;9356;52.202;20.950;2024-03-25T03:32:39;4.80;99.90
18454;DHT22;9356;52.202;20.950;2024-03-25T03:33:41;4.90;99.90
18454;DHT22;9356;52.202;20.950;2024-03-25T03:34:43;4.90;99.90
18454;DHT22;9356;52.202;20.950;2024-03-25T03:35:46;4.90;99.90
18454;DHT22;9356;52.202;20.950;2024-03-25T03:36:47;5.00;99.90
18454;DHT22;9356;52.202;20.950;2024-03-25T03:37:49;4.90;99.90
18454;DHT22;9356;52.202;20.950;2024-03-25T03:38:52;4.80;99.90
18454;DHT22;9356;52.202;20.950;2024-03-25T03:39:54;4.80;99.90
18454;DHT22;9356;52.202;20.950;2024-03-25T03:40:57;4.90;99.90
18454;DHT22;9356;52.202;20.950;2024-03-25T03:41:59;4.90;99.90
18454;DHT22;9356;52.202;20.950;2024-03-25T03:43:02;4.90;99.90
18454;DHT22;9356;52.202;20.950;2024-03-25T03:44:05;4.90;99.90
18454;DHT22;9356;52.202;20.950;2024-03-25T03:45:08;4.90;99.90
18454;DHT22;9356;52.202;20.950;2024-03-25T03:46:10;5.00;99.90
18454;DHT22;9356;52.202;20.950;2024-03-25T03:47:13;6.60;99.90
18454;DHT22;9356;52.202;20.950;2024-03-25T03:48:14;4.90;99.90
18454;DHT22;9356;52.202;20.950;2024-03-25T03:49:16;5.00;99.90
18454;DHT22;9356;52.202;20.950;2024-03-25T03:50:18;5.50;99.90
18454;DHT22;9356;52.202;20.950;2024-03-25T03:51:21;4.90;99.90
18454;DHT22;9356;52.202;20.950;2024-03-25T03:52:23;3.40;99.90
18454;DHT22;9356;52.202;20.950;2024-03-25T03:53:25;4.90;99.90
18454;DHT22;9356;52.202;20.950;2024-03-25T03:54:28;4.90;99.90
18454;DHT22;9356;52.202;20.950;2024-03-25T03:55:30;4.80;99.90
18454;DHT22;9356;52.202;20.950;2024-03-25T03:56:31;4.80;99.90
18454;DHT22;9356;52.202;20.950;2024-03-25T03:57:34;4.80;99.90
18454;DHT22;9356;52.202;20.950;2024-03-25T03:58:37;5.00;99.90
18454;DHT22;9356;52.202;20.950;2024-03-25T03:59:40;4.80;99.90
18454;DHT22;9356;52.202;20.950;2024-03-25T04:00:41;4.70;99.90
18454;DHT22;9356;52.202;20.950;2024-03-25T04:01:44;4.80;99.90
18454;DHT22;9356;52.202;20.950;2024-03-25T04:02:46;6.60;99.90
18454;DHT22;9356;52.202;20.950;2024-03-25T04:03:48;4.80;99.90
18454;DHT22;9356;52.202;20.950;2024-03-25T04:04:51;4.90;99.90
18454;DHT22;9356;52.202;20.950;2024-03-25T04:05:56;4.80;99.90
18454;DHT22;9356;52.202;20.950;2024-03-25T04:06:58;4.60;99.90
18454;DHT22;9356;52.202;20.950;2024-03-25T04:07:59;4.70;99.90
18454;DHT22;9356;52.202;20.950;2024-03-25T04:09:01;4.70;99.90
18454;DHT22;9356;52.202;20.950;2024-03-25T04:10:06;4.70;99.90
18454;DHT22;9356;52.202;20.950;2024-03-25T04:11:08;4.70;99.90
18454;DHT22;9356;52.202;20.950;2024-03-25T04:12:11;4.70;99.90
18454;DHT22;9356;52.202;20.950;2024-03-25T04:13:15;4.70;99.90
18454;DHT22;9356;52.202;20.950;2024-03-25T04:14:19;4.70;99.90
18454;DHT22;9356;52.202;20.950;2024-03-25T04:15:22;4.60;99.90
18454;DHT22;9356;52.202;20.950;2024-03-25T04:16:23;4.60;99.90
18454;DHT22;9356;52.202;20.950;2024-03-25T04:17:25;4.60;99.90
18454;DHT22;9356;52.202;20.950;2024-03-25T04:18:28;4.60;99.90
18454;DHT22;9356;52.202;20.950;2024-03-25T04:19:30;4.60;99.90
18454;DHT22;9356;52.202;20.950;2024-03-25T04:20:36;4.60;99.90
18454;DHT22;9356;52.202;20.950;2024-03-25T04:21:38;4.60;99.90
18454;DHT22;9356;52.202;20.950;2024-03-25T04:22:42;4.60;99.90
18454;DHT22;9356;52.202;20.950;2024-03-25T04:23:43;4.60;99.90
18454;DHT22;9356;52.202;20.950;2024-03-25T04:24:46;4.60;99.90
18454;DHT22;9356;52.202;20.950;2024-03-25T04:25:47;4.60;99.90
18454;DHT22;9356;52.202;20.950;2024-03-25T04:26:50;4.70;99.90
18454;DHT22;9356;52.202;20.950;2024-03-25T04:27:52;4.60;99.90
18454;DHT22;9356;52.202;20.950;2024-03-25T04:28:54;4.70;99.90
18454;DHT22;9356;52.202;20.950;2024-03-25T04:29:56;4.70;99.90
18454;DHT22;9356;52.202;20.950;2024-03-25T04:31:00;4.70;99.90
18454;DHT22;9356;52.202;20.950;2024-03-25T04:32:02;4.80;99.90
18454;DHT22;9356;52.202;20.950;2024-03-25T04:33:04;4.70;99.90
18454;DHT22;9356;52.202;20.950;2024-03-25T04:34:07;4.70;99.90
18454;DHT22;9356;52.202;20.950;2024-03-25T04:35:09;4.60;99.90
18454;DHT22;9356;52.202;20.950;2024-03-25T04:36:10;4.70;99.90
18454;DHT22;9356;52.202;20.950;2024-03-25T04:37:14;4.70;99.90
18454;DHT22;9356;52.202;20.950;2024-03-25T04:38:19;4.70;99.90
18454;DHT22;9356;52.202;20.950;2024-03-25T04:39:20;4.70;99.90
18454;DHT22;9356;52.202;20.950;2024-03-25T04:40:25;4.70;99.90
18454;DHT22;9356;52.202;20.950;2024-03-25T04:41:26;4.70;99.90
18454;DHT22;9356;52.202;20.950;2024-03-25T04:42:28;4.70;99.90
18454;DHT22;9356;52.202;20.950;2024-03-25T04:43:30;4.70;99.90
18454;DHT22;9356;52.202;20.950;2024-03-25T04:44:32;4.60;99.90
18454;DHT22;9356;52.202;20.950;2024-03-25T04:45:36;4.60;99.90
18454;DHT22;9356;52.202;20.950;2024-03-25T04:46:39;4.60;99.90
18454;DHT22;9356;52.202;20.950;2024-03-25T04:47:41;4.70;99.90
18454;DHT22;9356;52.202;20.950;2024-03-25T04:48:43;6.70;99.90
18454;DHT22;9356;52.202;20.950;2024-03-25T04:49:45;4.60;99.90
18454;DHT22;9356;52.202;20.950;2024-03-25T04:50:49;4.20;99.90
18454;DHT22;9356;52.202;20.950;2024-03-25T04:51:51;4.70;99.90
18454;DHT22;9356;52.202;20.950;2024-03-25T04:52:56;4.60;99.90
18454;DHT22;9356;52.202;20.950;2024-03-25T04:53:58;4.70;99.90
18454;DHT22;9356;52.202;20.950;2024-03-25T04:54:59;4.70;99.90
18454;DHT22;9356;52.202;20.950;2024-03-25T04:56:01;5.60;99.90
18454;DHT22;9356;52.202;20.950;2024-03-25T04:57:03;5.20;99.90
18454;DHT22;9356;52.202;20.950;2024-03-25T04:58:05;4.70;99.90
18454;DHT22;9356;52.202;20.950;2024-03-25T04:59:07;4.60;99.90
18454;DHT22;9356;52.202;20.950;2024-03-25T05:00:09;4.60;99.90
18454;DHT22;9356;52.202;20.950;2024-03-25T05:01:12;5.60;99.90
18454;DHT22;9356;52.202;20.950;2024-03-25T05:02:15;4.70;99.90
18454;DHT22;9356;52.202;20.950;2024-03-25T05:03:18;4.80;99.90
18454;DHT22;9356;52.202;20.950;2024-03-25T05:04:20;4.80;99.90
18454;DHT22;9356;52.202;20.950;2024-03-25T05:05:22;4.80;99.90
18454;DHT22;9356;52.202;20.950;2024-03-25T05:06:23;4.80;99.90
18454;DHT22;9356;52.202;20.950;2024-03-25T05:07:25;4.80;99.90
18454;DHT22;9356;52.202;20.950;2024-03-25T05:08:29;4.80;99.90
18454;DHT22;9356;52.202;20.950;2024-03-25T05:09:31;4.90;99.90
18454;DHT22;9356;52.202;20.950;2024-03-25T05:10:33;4.80;99.90
18454;DHT22;9356;52.202;20.950;2024-03-25T05:11:34;4.80;99.90
18454;DHT22;9356;52.202;20.950;2024-03-25T05:12:39;4.80;99.90
18454;DHT22;9356;52.202;20.950;2024-03-25T05:13:41;4.60;99.90
18454;DHT22;9356;52.202;20.950;2024-03-25T05:14:43;5.00;99.90
18454;DHT22;9356;52.202;20.950;2024-03-25T05:15:50;4.90;99.90
18454;DHT22;9356;52.202;20.950;2024-03-25T05:16:51;4.90;99.90
18454;DHT22;9356;52.202;20.950;2024-03-25T05:17:54;5.00;99.90
18454;DHT22;9356;52.202;20.950;2024-03-25T05:18:56;5.00;99.90
18454;DHT22;9356;52.202;20.950;2024-03-25T05:19:58;5.00;99.90
18454;DHT22;9356;52.202;20.950;2024-03-25T05:20:59;5.00;99.90
18454;DHT22;9356;52.202;20.950;2024-03-25T05:22:01;5.00;99.90
18454;DHT22;9356;52.202;20.950;2024-03-25T05:23:03;4.10;99.90
18454;DHT22;9356;52.202;20.950;2024-03-25T05:24:05;5.00;99.90
18454;DHT22;9356;52.202;20.950;2024-03-25T05:25:07;5.00;99.90
18454;DHT22;9356;52.202;20.950;2024-03-25T05:26:09;5.10;99.90
18454;DHT22;9356;52.202;20.950;2024-03-25T05:27:14;5.10;99.90
18454;DHT22;9356;52.202;20.950;2024-03-25T05:28:16;7.20;99.90
18454;DHT22;9356;52.202;20.950;2024-03-25T05:29:18;5.20;99.90
18454;DHT22;9356;52.202;20.950;2024-03-25T05:30:20;5.20;99.90
18454;DHT22;9356;52.202;20.950;2024-03-25T05:31:22;5.20;99.90
18454;DHT22;9356;52.202;20.950;2024-03-25T05:32:23;5.30;99.90
18454;DHT22;9356;52.202;20.950;2024-03-25T05:33:27;5.30;99.90
18454;DHT22;9356;52.202;20.950;2024-03-25T05:34:29;5.40;99.90
18454;DHT22;9356;52.202;20.950;2024-03-25T05:35:31;5.40;99.90
18454;DHT22;9356;52.202;20.950;2024-03-25T05:36:33;5.50;99.90
18454;DHT22;9356;52.202;20.950;2024-03-25T05:37:35;5.50;99.90
18454;DHT22;9356;52.202;20.950;2024-03-25T05:38:39;5.50;99.90
18454;DHT22;9356;52.202;20.950;2024-03-25T05:39:41;5.50;99.90
18454;DHT22;9356;52.202;20.950;2024-03-25T05:41:18;5.60;99.90
18454;DHT22;9356;52.202;20.950;2024-03-25T05:42:23;5.80;99.90
18454;DHT22;9356;52.202;20.950;2024-03-25T05:43:25;6.10;99.90
18454;DHT22;9356;52.202;20.950;2024-03-25T05:44:26;6.30;99.90
18454;DHT22;9356;52.202;20.950;2024-03-25T05:45:28;6.50;99.90
18454;DHT22;9356;52.202;20.950;2024-03-25T05:46:31;6.70;99.90
18454;DHT22;9356;52.202;20.950;2024-03-25T05:47:32;7.00;99.90
18454;DHT22;9356;52.202;20.950;2024-03-25T05:48:36;7.20;99.90
18454;DHT22;9356;52.202;20.950;2024-03-25T05:49:38;8.80;99.90
18454;DHT22;9356;52.202;20.950;2024-03-25T05:50:40;7.70;99.90
18454;DHT22;9356;52.202;20.950;2024-03-25T05:51:42;7.90;99.90
18454;DHT22;9356;52.202;20.950;2024-03-25T05:52:46;8.00;99.90
18454;DHT22;9356;52.202;20.950;2024-03-25T05:53:48;8.10;99.90
18454;DHT22;9356;52.202;20.950;2024-03-25T05:54:50;8.20;99.90
18454;DHT22;9356;52.202;20.950;2024-03-25T05:55:52;8.20;99.90
18454;DHT22;9356;52.202;20.950;2024-03-25T05:56:55;8.00;99.90
18454;DHT22;9356;52.202;20.950;2024-03-25T05:57:56;8.00;99.90
18454;DHT22;9356;52.202;20.950;2024-03-25T05:58:58;7.90;99.90
18454;DHT22;9356;52.202;20.950;2024-03-25T06:00:00;7.80;99.90
18454;DHT22;9356;52.202;20.950;2024-03-25T06:01:02;7.70;99.90
18454;DHT22;9356;52.202;20.950;2024-03-25T06:02:04;7.70;99.90
18454;DHT22;9356;52.202;20.950;2024-03-25T06:03:06;7.70;99.90
18454;DHT22;9356;52.202;20.950;2024-03-25T06:04:09;7.60;99.90
18454;DHT22;9356;52.202;20.950;2024-03-25T06:05:11;7.60;99.90
18454;DHT22;9356;52.202;20.950;2024-03-25T06:06:13;5.20;99.90
18454;DHT22;9356;52.202;20.950;2024-03-25T06:07:16;7.60;99.90
18454;DHT22;9356;52.202;20.950;2024-03-25T06:08:19;7.60;99.90
18454;DHT22;9356;52.202;20.950;2024-03-25T06:09:22;7.50;99.90
18454;DHT22;9356;52.202;20.950;2024-03-25T06:10:23;7.50;99.90
18454;DHT22;9356;52.202;20.950;2024-03-25T06:11:25;7.50;99.90
18454;DHT22;9356;52.202;20.950;2024-03-25T06:12:27;7.60;99.90
18454;DHT22;9356;52.202;20.950;2024-03-25T06:13:29;7.50;99.90
18454;DHT22;9356;52.202;20.950;2024-03-25T06:14:31;7.50;99.90
18454;DHT22;9356;52.202;20.950;2024-03-25T06:15:33;7.40;99.90
18454;DHT22;9356;52.202;20.950;2024-03-25T06:16:38;7.40;99.90
18454;DHT22;9356;52.202;20.950;2024-03-25T06:17:40;7.40;99.90
18454;DHT22;9356;52.202;20.950;2024-03-25T06:18:41;7.50;99.90
18454;DHT22;9356;52.202;20.950;2024-03-25T06:19:44;7.60;99.90
18454;DHT22;9356;52.202;20.950;2024-03-25T06:20:46;7.70;99.90
18454;DHT22;9356;52.202;20.950;2024-03-25T06:21:48;8.00;99.90
18454;DHT22;9356;52.202;20.950;2024-03-25T06:22:50;8.10;99.90
18454;DHT22;9356;52.202;20.950;2024-03-25T06:23:52;8.20;99.90
18454;DHT22;9356;52.202;20.950;2024-03-25T06:24:54;8.40;99.90
18454;DHT22;9356;52.202;20.950;2024-03-25T06:25:56;8.00;99.90
18454;DHT22;9356;52.202;20.950;2024-03-25T06:26:58;8.00;99.90
18454;DHT22;9356;52.202;20.950;2024-03-25T06:28:01;7.80;99.90
18454;DHT22;9356;52.202;20.950;2024-03-25T06:29:03;7.70;99.90
18454;DHT22;9356;52.202;20.950;2024-03-25T06:30:06;7.80;99.90
18454;DHT22;9356;52.202;20.950;2024-03-25T06:31:27;5.60;99.90
18454;DHT22;9356;52.202;20.950;2024-03-25T06:32:49;7.80;99.90
18454;DHT22;9356;52.202;20.950;2024-03-25T06:34:10;7.90;99.90
18454;DHT22;9356;52.202;20.950;2024-03-25T06:35:22;8.00;99.90
18454;DHT22;9356;52.202;20.950;2024-03-25T06:36:24;8.30;99.90
18454;DHT22;9356;52.202;20.950;2024-03-25T06:37:26;8.60;99.90
18454;DHT22;9356;52.202;20.950;2024-03-25T06:38:28;8.30;99.90
18454;DHT22;9356;52.202;20.950;2024-03-25T06:39:30;8.80;99.90
18454;DHT22;9356;52.202;20.950;2024-03-25T06:40:32;8.80;99.90
18454;DHT22;9356;52.202;20.950;2024-03-25T06:41:34;8.80;99.90
18454;DHT22;9356;52.202;20.950;2024-03-25T06:42:36;8.80;99.90
18454;DHT22;9356;52.202;20.950;2024-03-25T06:43:38;8.30;99.90